Rockway

*Note: All times are displayed in the local standard time of the station location.
**Rain - Equipment is designed to accurately record liquid precipitation; under conditions when precipitation is not in liquid form, the data displayed may not properly reflect rainfall values.

Date Max Temp
(°C)
Min Temp
(°C)
Avg Temp
(°C)
Rain (mm) Avg RH (%)
Mon, Apr 23, 2018 14.0 -2.1 6.0 0.0 64.8
Sun, Apr 22, 2018 15.9 -2.6 7.2 0.0 51.3
Sat, Apr 21, 2018 14.0 -4.3 5.1 0.0 55.9
Fri, Apr 20, 2018 8.2 -2.0 2.5 0.0 59.1
Thu, Apr 19, 2018 4.2 0.5 2.0 0.0 64.3
Wed, Apr 18, 2018 3.8 0.4 1.8 0.0 76.5
Tue, Apr 17, 2018 1.4 -1.3 0.3 0.0 74.8
DateTime Avg Temp (°C) Rain (mm) RH (%)
Tue, Apr 24, 2018 18:00 12.5 0.6 79.5
Tue, Apr 24, 2018 17:00 14.0 0.0 65.5
Tue, Apr 24, 2018 16:00 15.6 0.0 52.5
Tue, Apr 24, 2018 15:00 16.8 0.0 43.5
Tue, Apr 24, 2018 14:00 17.4 0.0 40.3
Tue, Apr 24, 2018 13:00 17.1 0.0 40.3
Tue, Apr 24, 2018 12:00 16.0 0.0 42.5
Tue, Apr 24, 2018 11:00 14.0 0.0 53.3
Tue, Apr 24, 2018 10:00 13.3 0.0 60.0
Tue, Apr 24, 2018 09:00 13.4 0.0 58.5
Tue, Apr 24, 2018 08:00 13.2 0.0 54.8
Tue, Apr 24, 2018 07:00 12.4 0.0 58.0
Tue, Apr 24, 2018 06:00 12.6 0.0 56.8
Tue, Apr 24, 2018 05:00 12.5 0.0 55.3
Tue, Apr 24, 2018 04:00 9.9 0.0 61.3
Tue, Apr 24, 2018 03:00 3.2 0.0 88.5
Tue, Apr 24, 2018 02:00 3.5 0.0 85.5
Tue, Apr 24, 2018 01:00 3.6 0.0 83.0
Tue, Apr 24, 2018 00:00 4.0 0.0 79.0
Mon, Apr 23, 2018 23:00 4.6 0.0 73.0
Mon, Apr 23, 2018 22:00 4.9 0.0 71.5
Mon, Apr 23, 2018 21:00 5.5 0.0 69.8
Mon, Apr 23, 2018 20:00 6.7 0.0 62.5
Mon, Apr 23, 2018 19:00 8.2 0.0 57.5
Mon, Apr 23, 2018 18:00 10.1 0.0 50.5
Mon, Apr 23, 2018 17:00 10.8 0.0 50.5
Mon, Apr 23, 2018 16:00 12.4 0.0 48.8
Mon, Apr 23, 2018 15:00 13.5 0.0 46.8
Mon, Apr 23, 2018 14:00 12.2 0.0 47.3
Mon, Apr 23, 2018 13:00 11.9 0.0 47.5
Mon, Apr 23, 2018 12:00 11.8 0.0 43.0
Mon, Apr 23, 2018 11:00 11.9 0.0 49.5
Mon, Apr 23, 2018 10:00 10.2 0.0 46.3
Mon, Apr 23, 2018 09:00 5.9 0.0 63.5
Mon, Apr 23, 2018 08:00 2.9 0.0 66.5
Mon, Apr 23, 2018 07:00 -1.5 0.0 84.5
Mon, Apr 23, 2018 06:00 -1.5 0.0 86.3
Mon, Apr 23, 2018 05:00 -0.8 0.0 81.8
Mon, Apr 23, 2018 04:00 -0.4 0.0 84.5
Mon, Apr 23, 2018 03:00 -0.5 0.0 86.0
Mon, Apr 23, 2018 02:00 0.2 0.0 83.3
Mon, Apr 23, 2018 01:00 1.4 0.0 76.0
Mon, Apr 23, 2018 00:00 2.8 0.0 71.5
Sun, Apr 22, 2018 23:00 3.5 0.0 63.8
Sun, Apr 22, 2018 22:00 4.1 0.0 73.3
Sun, Apr 22, 2018 21:00 8.5 0.0 48.3
Sun, Apr 22, 2018 20:00 14.2 0.0 23.0
Sun, Apr 22, 2018 19:00 15.6 0.0 18.0


asterix Register now to access more data! asterix